This is the latest recevied weather packets stored in our database for station/object W7TRD. If no packets are shown the sender has not sent any weather packets the latest 10 day(s).
| Time | Temp. | Humidity | Pressure | Rain* | Wind** | Luminosity | Snow |
|---|---|---|---|---|---|---|---|
| 1787944886 | 21.67° C | 57% | 1019 hPa | 0 mm | - | 907 W/m² | - |
| 1787944586 | 20.56° C | 60% | 1019.1 hPa | 0 mm | - | 787 W/m² | - |
| 1787944281 | 21.11° C | 60% | 1019.2 hPa | 0 mm | - | 356 W/m² | - |
| 1787943982 | 22.22° C | 58% | 1019 hPa | 0 mm | - | 331 W/m² | - |
| 1787943677 | 20.56° C | 60% | 1019.2 hPa | 0 mm | - | 840 W/m² | - |
| 1787943372 | 21.67° C | 57% | 1019.3 hPa | 0 mm | - | 801 W/m² | - |
| 1787943067 | 20.56° C | 62% | 1019.3 hPa | 0 mm | - | 718 W/m² | - |
| 1787942762 | 20° C | 61% | 1019.3 hPa | 0 mm | - | 753 W/m² | - |
| 1787942457 | 20.56° C | 61% | 1019.3 hPa | 0 mm | - | 684 W/m² | - |
| 1787942156 | 20.56° C | 62% | 1019.3 hPa | 0 mm | - | 860 W/m² | - |
| 1787941852 | 21.67° C | 60% | 1019.1 hPa | 0 mm | - | 844 W/m² | - |
| 1787941551 | 21.11° C | 61% | 1019.6 hPa | 0 mm | - | 497 W/m² | - |
| 1787941247 | 20.56° C | 61% | 1019.4 hPa | 0 mm | - | 789 W/m² | - |
| 1787940946 | 20° C | 63% | 1019.4 hPa | 0 mm | - | 775 W/m² | - |
| 1787940645 | 19.44° C | 65% | 1019.3 hPa | 0 mm | - | 879 W/m² | - |
| 1787940343 | 19.44° C | 66% | 1019.5 hPa | 0 mm | - | 254 W/m² | - |
| 1787940043 | 20° C | 65% | 1019.3 hPa | 0 mm | - | 243 W/m² | - |
| 1787939743 | 20° C | 65% | 1019.4 hPa | 0 mm | - | 275 W/m² | - |
| 1787939437 | 19.44° C | 66% | 1019.5 hPa | 0 mm | - | 725 W/m² | - |
| 1787939133 | 18.89° C | 69% | 1019.5 hPa | 0 mm | - | 177 W/m² | - |
| 1787938832 | 18.33° C | 71% | 1019.7 hPa | 0 mm | - | 194 W/m² | - |
| 1787938527 | 18.89° C | 71% | 1019.6 hPa | 0 mm | - | 188 W/m² | - |
| 1787938223 | 18.89° C | 71% | 1019.4 hPa | 0 mm | - | 150 W/m² | - |
| 1787937917 | 18.89° C | 70% | 1019.4 hPa | 0 mm | - | 152 W/m² | - |
| 1787937613 | 18.89° C | 70% | 1019.4 hPa | 0 mm | - | 221 W/m² | - |
* Rain latest hour (hover to see other rain measurements)
** Current wind speed in m/s (hover to see current wind gust speed)